sensor_id;sensor_type;location;lat;lon;timestamp;temperature;humidity
54431;DHT22;40342;52.998;5.862;2024-01-15T00:00:56;1.60;99.90
54431;DHT22;40342;52.998;5.862;2024-01-15T00:03:22;1.60;99.90
54431;DHT22;40342;52.998;5.862;2024-01-15T00:05:50;1.70;99.90
54431;DHT22;40342;52.998;5.862;2024-01-15T00:08:15;1.70;99.90
54431;DHT22;40342;52.998;5.862;2024-01-15T00:10:43;1.70;99.90
54431;DHT22;40342;52.998;5.862;2024-01-15T00:13:11;1.70;99.90
54431;DHT22;40342;52.998;5.862;2024-01-15T00:15:39;1.70;99.90
54431;DHT22;40342;52.998;5.862;2024-01-15T00:18:06;1.70;99.90
54431;DHT22;40342;52.998;5.862;2024-01-15T00:20:31;1.80;99.90
54431;DHT22;40342;52.998;5.862;2024-01-15T00:23:00;1.80;99.90
54431;DHT22;40342;52.998;5.862;2024-01-15T00:25:30;1.80;99.90
54431;DHT22;40342;52.998;5.862;2024-01-15T00:27:56;1.90;99.90
54431;DHT22;40342;52.998;5.862;2024-01-15T00:30:24;1.90;99.90
54431;DHT22;40342;52.998;5.862;2024-01-15T00:32:52;1.90;99.90
54431;DHT22;40342;52.998;5.862;2024-01-15T00:35:18;1.90;99.90
54431;DHT22;40342;52.998;5.862;2024-01-15T00:37:47;2.00;99.90
54431;DHT22;40342;52.998;5.862;2024-01-15T00:40:13;2.00;99.90
54431;DHT22;40342;52.998;5.862;2024-01-15T00:42:38;2.00;99.90
54431;DHT22;40342;52.998;5.862;2024-01-15T00:45:04;2.00;99.90
54431;DHT22;40342;52.998;5.862;2024-01-15T00:47:30;2.00;99.90
54431;DHT22;40342;52.998;5.862;2024-01-15T00:49:56;2.00;99.90
54431;DHT22;40342;52.998;5.862;2024-01-15T00:52:21;2.00;99.90
54431;DHT22;40342;52.998;5.862;2024-01-15T00:54:49;2.10;99.90
54431;DHT22;40342;52.998;5.862;2024-01-15T00:57:17;2.10;99.90
54431;DHT22;40342;52.998;5.862;2024-01-15T00:59:44;2.10;99.90
54431;DHT22;40342;52.998;5.862;2024-01-15T01:02:12;2.10;99.90
54431;DHT22;40342;52.998;5.862;2024-01-15T01:04:37;2.00;99.90
54431;DHT22;40342;52.998;5.862;2024-01-15T01:07:03;2.00;99.90
54431;DHT22;40342;52.998;5.862;2024-01-15T01:09:31;2.00;99.90
54431;DHT22;40342;52.998;5.862;2024-01-15T01:11:57;2.00;99.90
54431;DHT22;40342;52.998;5.862;2024-01-15T01:14:22;2.10;99.90
54431;DHT22;40342;52.998;5.862;2024-01-15T01:16:53;2.10;99.90
54431;DHT22;40342;52.998;5.862;2024-01-15T01:19:19;2.00;99.90
54431;DHT22;40342;52.998;5.862;2024-01-15T01:21:44;2.00;99.90
54431;DHT22;40342;52.998;5.862;2024-01-15T01:24:10;2.00;99.90
54431;DHT22;40342;52.998;5.862;2024-01-15T01:26:35;1.90;99.90
54431;DHT22;40342;52.998;5.862;2024-01-15T01:29:01;1.90;99.90
54431;DHT22;40342;52.998;5.862;2024-01-15T01:31:26;1.80;99.90
54431;DHT22;40342;52.998;5.862;2024-01-15T01:33:52;1.80;99.90
54431;DHT22;40342;52.998;5.862;2024-01-15T01:36:20;1.70;99.90
54431;DHT22;40342;52.998;5.862;2024-01-15T01:38:45;1.70;99.90
54431;DHT22;40342;52.998;5.862;2024-01-15T01:41:11;1.70;99.90
54431;DHT22;40342;52.998;5.862;2024-01-15T01:43:36;1.70;99.90
54431;DHT22;40342;52.998;5.862;2024-01-15T01:46:05;1.60;99.90
54431;DHT22;40342;52.998;5.862;2024-01-15T01:48:33;1.60;99.90
54431;DHT22;40342;52.998;5.862;2024-01-15T01:51:05;1.60;99.90
54431;DHT22;40342;52.998;5.862;2024-01-15T01:53:31;1.60;99.90
54431;DHT22;40342;52.998;5.862;2024-01-15T01:55:57;1.60;99.90
54431;DHT22;40342;52.998;5.862;2024-01-15T01:58:23;1.50;99.90
54431;DHT22;40342;52.998;5.862;2024-01-15T02:00:49;1.50;99.90
54431;DHT22;40342;52.998;5.862;2024-01-15T02:03:17;1.50;99.90
54431;DHT22;40342;52.998;5.862;2024-01-15T02:05:45;1.40;99.90
54431;DHT22;40342;52.998;5.862;2024-01-15T02:08:15;1.40;99.90
54431;DHT22;40342;52.998;5.862;2024-01-15T02:10:41;1.40;99.90
54431;DHT22;40342;52.998;5.862;2024-01-15T02:13:06;1.40;99.90
54431;DHT22;40342;52.998;5.862;2024-01-15T02:15:32;1.40;99.90
54431;DHT22;40342;52.998;5.862;2024-01-15T02:18:02;1.40;99.90
54431;DHT22;40342;52.998;5.862;2024-01-15T02:20:34;1.40;99.90
54431;DHT22;40342;52.998;5.862;2024-01-15T02:23:11;1.50;99.90
54431;DHT22;40342;52.998;5.862;2024-01-15T02:25:40;1.50;99.90
54431;DHT22;40342;52.998;5.862;2024-01-15T02:28:06;1.40;99.90
54431;DHT22;40342;52.998;5.862;2024-01-15T02:30:34;1.50;99.90
54431;DHT22;40342;52.998;5.862;2024-01-15T02:33:02;1.40;99.90
54431;DHT22;40342;52.998;5.862;2024-01-15T02:35:27;1.50;99.90
54431;DHT22;40342;52.998;5.862;2024-01-15T02:37:53;1.60;99.90
54431;DHT22;40342;52.998;5.862;2024-01-15T02:40:18;1.60;99.90
54431;DHT22;40342;52.998;5.862;2024-01-15T02:42:44;1.60;99.90
54431;DHT22;40342;52.998;5.862;2024-01-15T02:45:09;1.60;99.90
54431;DHT22;40342;52.998;5.862;2024-01-15T02:47:38;1.70;99.90
54431;DHT22;40342;52.998;5.862;2024-01-15T02:50:06;1.60;99.90
54431;DHT22;40342;52.998;5.862;2024-01-15T02:52:34;1.60;99.90
54431;DHT22;40342;52.998;5.862;2024-01-15T02:55:02;1.60;99.90
54431;DHT22;40342;52.998;5.862;2024-01-15T02:57:30;1.60;99.90
54431;DHT22;40342;52.998;5.862;2024-01-15T02:59:58;1.60;99.90
54431;DHT22;40342;52.998;5.862;2024-01-15T03:02:26;1.60;99.90
54431;DHT22;40342;52.998;5.862;2024-01-15T03:04:54;1.70;99.90
54431;DHT22;40342;52.998;5.862;2024-01-15T03:07:19;1.70;99.90
54431;DHT22;40342;52.998;5.862;2024-01-15T03:09:47;1.70;99.90
54431;DHT22;40342;52.998;5.862;2024-01-15T03:12:13;1.70;99.90
54431;DHT22;40342;52.998;5.862;2024-01-15T03:14:41;1.80;99.90
54431;DHT22;40342;52.998;5.862;2024-01-15T03:17:07;1.80;99.90
54431;DHT22;40342;52.998;5.862;2024-01-15T03:19:35;1.80;99.90
54431;DHT22;40342;52.998;5.862;2024-01-15T03:22:03;1.80;99.90
54431;DHT22;40342;52.998;5.862;2024-01-15T03:24:29;1.70;99.90
54431;DHT22;40342;52.998;5.862;2024-01-15T03:26:57;1.70;99.90
54431;DHT22;40342;52.998;5.862;2024-01-15T03:29:26;1.60;99.90
54431;DHT22;40342;52.998;5.862;2024-01-15T03:31:51;1.60;99.90
54431;DHT22;40342;52.998;5.862;2024-01-15T03:34:17;1.60;99.90
54431;DHT22;40342;52.998;5.862;2024-01-15T03:36:42;1.50;99.90
54431;DHT22;40342;52.998;5.862;2024-01-15T03:39:08;1.50;99.90
54431;DHT22;40342;52.998;5.862;2024-01-15T03:41:34;1.50;99.90
54431;DHT22;40342;52.998;5.862;2024-01-15T03:44:02;1.50;99.90
54431;DHT22;40342;52.998;5.862;2024-01-15T03:46:27;1.50;99.90
54431;DHT22;40342;52.998;5.862;2024-01-15T03:48:55;1.60;99.90
54431;DHT22;40342;52.998;5.862;2024-01-15T03:51:24;1.60;99.90
54431;DHT22;40342;52.998;5.862;2024-01-15T03:53:57;1.60;99.90
54431;DHT22;40342;52.998;5.862;2024-01-15T03:56:23;1.60;99.90
54431;DHT22;40342;52.998;5.862;2024-01-15T03:58:51;1.60;99.90
54431;DHT22;40342;52.998;5.862;2024-01-15T04:01:16;1.60;99.90
54431;DHT22;40342;52.998;5.862;2024-01-15T04:03:42;1.60;99.90
54431;DHT22;40342;52.998;5.862;2024-01-15T04:06:07;1.70;99.90
54431;DHT22;40342;52.998;5.862;2024-01-15T04:08:33;1.70;99.90
54431;DHT22;40342;52.998;5.862;2024-01-15T04:10:58;1.70;99.90
54431;DHT22;40342;52.998;5.862;2024-01-15T04:13:32;1.80;99.90
54431;DHT22;40342;52.998;5.862;2024-01-15T04:15:57;1.80;99.90
54431;DHT22;40342;52.998;5.862;2024-01-15T04:18:23;1.80;99.90
54431;DHT22;40342;52.998;5.862;2024-01-15T04:20:48;1.80;99.90
54431;DHT22;40342;52.998;5.862;2024-01-15T04:23:22;1.80;99.90
54431;DHT22;40342;52.998;5.862;2024-01-15T04:25:47;1.70;99.90
54431;DHT22;40342;52.998;5.862;2024-01-15T04:28:16;1.70;99.90
54431;DHT22;40342;52.998;5.862;2024-01-15T04:30:41;1.70;99.90
54431;DHT22;40342;52.998;5.862;2024-01-15T04:33:12;1.60;99.90
54431;DHT22;40342;52.998;5.862;2024-01-15T04:35:40;1.60;99.90
54431;DHT22;40342;52.998;5.862;2024-01-15T04:38:09;1.60;99.90
54431;DHT22;40342;52.998;5.862;2024-01-15T04:40:34;1.50;99.90
54431;DHT22;40342;52.998;5.862;2024-01-15T04:43:00;1.50;99.90
54431;DHT22;40342;52.998;5.862;2024-01-15T04:45:25;1.40;99.90
54431;DHT22;40342;52.998;5.862;2024-01-15T04:47:54;1.40;99.90
54431;DHT22;40342;52.998;5.862;2024-01-15T04:50:20;1.40;99.90
54431;DHT22;40342;52.998;5.862;2024-01-15T04:52:49;1.40;99.90
54431;DHT22;40342;52.998;5.862;2024-01-15T04:55:14;1.40;99.90
54431;DHT22;40342;52.998;5.862;2024-01-15T04:57:40;1.40;99.90
54431;DHT22;40342;52.998;5.862;2024-01-15T05:00:09;1.40;99.90
54431;DHT22;40342;52.998;5.862;2024-01-15T05:02:40;1.30;99.90
54431;DHT22;40342;52.998;5.862;2024-01-15T05:05:08;1.30;99.90
54431;DHT22;40342;52.998;5.862;2024-01-15T05:07:33;1.30;99.90
54431;DHT22;40342;52.998;5.862;2024-01-15T05:09:59;1.20;99.90
54431;DHT22;40342;52.998;5.862;2024-01-15T05:12:24;1.20;99.90
54431;DHT22;40342;52.998;5.862;2024-01-15T05:14:56;1.20;99.90
54431;DHT22;40342;52.998;5.862;2024-01-15T05:17:24;1.10;99.90
54431;DHT22;40342;52.998;5.862;2024-01-15T05:19:50;1.10;99.90
54431;DHT22;40342;52.998;5.862;2024-01-15T05:22:18;1.10;99.90
54431;DHT22;40342;52.998;5.862;2024-01-15T05:24:44;1.00;99.90
54431;DHT22;40342;52.998;5.862;2024-01-15T05:27:09;1.00;99.90
54431;DHT22;40342;52.998;5.862;2024-01-15T05:29:35;1.00;99.90
54431;DHT22;40342;52.998;5.862;2024-01-15T05:32:00;1.00;99.90
54431;DHT22;40342;52.998;5.862;2024-01-15T05:34:26;1.00;99.90
54431;DHT22;40342;52.998;5.862;2024-01-15T05:36:51;1.10;99.90
54431;DHT22;40342;52.998;5.862;2024-01-15T05:39:19;1.10;99.90
54431;DHT22;40342;52.998;5.862;2024-01-15T05:41:51;1.10;99.90
54431;DHT22;40342;52.998;5.862;2024-01-15T05:44:16;1.20;99.90
54431;DHT22;40342;52.998;5.862;2024-01-15T05:46:42;1.20;99.90
54431;DHT22;40342;52.998;5.862;2024-01-15T05:49:07;1.20;99.90
54431;DHT22;40342;52.998;5.862;2024-01-15T05:51:42;1.20;99.90
54431;DHT22;40342;52.998;5.862;2024-01-15T05:54:08;1.20;99.90
54431;DHT22;40342;52.998;5.862;2024-01-15T05:56:39;1.20;99.90
54431;DHT22;40342;52.998;5.862;2024-01-15T05:59:05;1.20;99.90
54431;DHT22;40342;52.998;5.862;2024-01-15T06:01:30;1.20;99.90
54431;DHT22;40342;52.998;5.862;2024-01-15T06:04:02;1.20;99.90
54431;DHT22;40342;52.998;5.862;2024-01-15T06:06:28;1.20;99.90
54431;DHT22;40342;52.998;5.862;2024-01-15T06:08:56;1.20;99.90
54431;DHT22;40342;52.998;5.862;2024-01-15T06:11:29;1.10;99.90
54431;DHT22;40342;52.998;5.862;2024-01-15T06:13:54;1.10;99.90
54431;DHT22;40342;52.998;5.862;2024-01-15T06:16:20;1.10;99.90
54431;DHT22;40342;52.998;5.862;2024-01-15T06:18:46;1.20;99.90
54431;DHT22;40342;52.998;5.862;2024-01-15T06:21:12;1.10;99.90
54431;DHT22;40342;52.998;5.862;2024-01-15T06:23:42;1.20;99.90
54431;DHT22;40342;52.998;5.862;2024-01-15T06:26:13;1.20;99.90
54431;DHT22;40342;52.998;5.862;2024-01-15T06:28:42;1.30;99.90
54431;DHT22;40342;52.998;5.862;2024-01-15T06:31:10;1.30;99.90
54431;DHT22;40342;52.998;5.862;2024-01-15T06:33:35;1.30;99.90
54431;DHT22;40342;52.998;5.862;2024-01-15T06:36:04;1.20;99.90
54431;DHT22;40342;52.998;5.862;2024-01-15T06:38:30;1.20;99.90
54431;DHT22;40342;52.998;5.862;2024-01-15T06:40:56;1.10;99.90
54431;DHT22;40342;52.998;5.862;2024-01-15T06:43:21;1.10;99.90
54431;DHT22;40342;52.998;5.862;2024-01-15T06:45:47;1.10;99.90
54431;DHT22;40342;52.998;5.862;2024-01-15T06:48:15;1.10;99.90
54431;DHT22;40342;52.998;5.862;2024-01-15T06:50:42;1.10;99.90
54431;DHT22;40342;52.998;5.862;2024-01-15T06:53:07;1.10;99.90
54431;DHT22;40342;52.998;5.862;2024-01-15T06:55:33;1.10;99.90
54431;DHT22;40342;52.998;5.862;2024-01-15T06:57:58;1.10;99.90
54431;DHT22;40342;52.998;5.862;2024-01-15T07:00:29;1.10;99.90
54431;DHT22;40342;52.998;5.862;2024-01-15T07:02:57;1.10;99.90
54431;DHT22;40342;52.998;5.862;2024-01-15T07:05:23;1.10;99.90
54431;DHT22;40342;52.998;5.862;2024-01-15T07:07:49;1.10;99.90
54431;DHT22;40342;52.998;5.862;2024-01-15T07:10:20;1.10;99.90
54431;DHT22;40342;52.998;5.862;2024-01-15T07:12:54;1.10;99.90
54431;DHT22;40342;52.998;5.862;2024-01-15T07:15:22;1.10;99.90
54431;DHT22;40342;52.998;5.862;2024-01-15T07:17:48;1.10;99.90
54431;DHT22;40342;52.998;5.862;2024-01-15T07:22:51;1.10;99.90
54431;DHT22;40342;52.998;5.862;2024-01-15T07:25:17;1.10;99.90
54431;DHT22;40342;52.998;5.862;2024-01-15T07:27:45;1.10;99.90
54431;DHT22;40342;52.998;5.862;2024-01-15T07:30:14;1.10;99.90
54431;DHT22;40342;52.998;5.862;2024-01-15T07:32:42;1.10;99.90
54431;DHT22;40342;52.998;5.862;2024-01-15T07:35:08;1.10;99.90
54431;DHT22;40342;52.998;5.862;2024-01-15T07:37:35;1.10;99.90
54431;DHT22;40342;52.998;5.862;2024-01-15T07:40:01;1.10;99.90
54431;DHT22;40342;52.998;5.862;2024-01-15T07:42:29;1.10;99.90
54431;DHT22;40342;52.998;5.862;2024-01-15T07:45:00;1.10;99.90
54431;DHT22;40342;52.998;5.862;2024-01-15T07:47:28;1.20;99.90
54431;DHT22;40342;52.998;5.862;2024-01-15T07:49:54;1.20;99.90
54431;DHT22;40342;52.998;5.862;2024-01-15T07:52:25;1.20;99.90
54431;DHT22;40342;52.998;5.862;2024-01-15T07:54:50;1.20;99.90
54431;DHT22;40342;52.998;5.862;2024-01-15T07:57:21;1.20;99.90
54431;DHT22;40342;52.998;5.862;2024-01-15T07:59:50;1.20;99.90
54431;DHT22;40342;52.998;5.862;2024-01-15T08:02:19;1.20;99.90
54431;DHT22;40342;52.998;5.862;2024-01-15T08:04:47;1.30;99.90
54431;DHT22;40342;52.998;5.862;2024-01-15T08:07:12;1.30;99.90
54431;DHT22;40342;52.998;5.862;2024-01-15T08:09:38;1.30;99.90
54431;DHT22;40342;52.998;5.862;2024-01-15T08:12:06;1.30;99.90
54431;DHT22;40342;52.998;5.862;2024-01-15T08:14:32;1.30;99.90
54431;DHT22;40342;52.998;5.862;2024-01-15T08:17:03;1.30;99.90
54431;DHT22;40342;52.998;5.862;2024-01-15T08:19:31;1.20;99.90
54431;DHT22;40342;52.998;5.862;2024-01-15T08:21:56;1.20;99.90
54431;DHT22;40342;52.998;5.862;2024-01-15T08:24:24;1.20;99.90
54431;DHT22;40342;52.998;5.862;2024-01-15T08:26:50;1.20;99.90
54431;DHT22;40342;52.998;5.862;2024-01-15T08:29:18;1.20;99.90
54431;DHT22;40342;52.998;5.862;2024-01-15T08:31:46;1.20;99.90
54431;DHT22;40342;52.998;5.862;2024-01-15T08:34:14;1.10;99.90
54431;DHT22;40342;52.998;5.862;2024-01-15T08:36:39;1.10;99.90
54431;DHT22;40342;52.998;5.862;2024-01-15T08:39:06;1.10;99.90
54431;DHT22;40342;52.998;5.862;2024-01-15T08:41:33;1.10;99.90
54431;DHT22;40342;52.998;5.862;2024-01-15T08:44:04;1.10;99.90
54431;DHT22;40342;52.998;5.862;2024-01-15T08:46:30;1.10;99.90
54431;DHT22;40342;52.998;5.862;2024-01-15T08:48:55;1.10;99.90
54431;DHT22;40342;52.998;5.862;2024-01-15T08:51:21;1.10;99.90
54431;DHT22;40342;52.998;5.862;2024-01-15T08:53:46;1.10;99.90
54431;DHT22;40342;52.998;5.862;2024-01-15T08:56:12;1.10;99.90
54431;DHT22;40342;52.998;5.862;2024-01-15T08:58:37;1.00;99.90
54431;DHT22;40342;52.998;5.862;2024-01-15T09:01:03;1.00;99.90
54431;DHT22;40342;52.998;5.862;2024-01-15T09:03:28;1.00;99.90
54431;DHT22;40342;52.998;5.862;2024-01-15T09:06:00;1.00;99.90
54431;DHT22;40342;52.998;5.862;2024-01-15T09:08:28;1.00;99.90
54431;DHT22;40342;52.998;5.862;2024-01-15T09:10:53;1.00;99.90
54431;DHT22;40342;52.998;5.862;2024-01-15T09:13:19;1.00;99.90
54431;DHT22;40342;52.998;5.862;2024-01-15T09:15:44;1.10;99.90
54431;DHT22;40342;52.998;5.862;2024-01-15T09:18:10;1.10;99.90
54431;DHT22;40342;52.998;5.862;2024-01-15T09:20:35;1.20;99.90
54431;DHT22;40342;52.998;5.862;2024-01-15T09:23:04;1.10;99.90
54431;DHT22;40342;52.998;5.862;2024-01-15T09:25:29;1.20;99.90
54431;DHT22;40342;52.998;5.862;2024-01-15T09:27:55;1.20;99.90
54431;DHT22;40342;52.998;5.862;2024-01-15T09:30:20;1.20;99.90
54431;DHT22;40342;52.998;5.862;2024-01-15T09:32:46;1.30;99.90
54431;DHT22;40342;52.998;5.862;2024-01-15T09:35:11;1.30;99.90
54431;DHT22;40342;52.998;5.862;2024-01-15T09:37:39;1.30;99.90
54431;DHT22;40342;52.998;5.862;2024-01-15T09:40:05;1.30;99.90
54431;DHT22;40342;52.998;5.862;2024-01-15T09:42:34;1.30;99.90
54431;DHT22;40342;52.998;5.862;2024-01-15T09:45:00;1.30;99.90
54431;DHT22;40342;52.998;5.862;2024-01-15T09:47:29;1.30;99.90
54431;DHT22;40342;52.998;5.862;2024-01-15T09:49:57;1.30;99.90
54431;DHT22;40342;52.998;5.862;2024-01-15T09:52:23;1.40;99.90
54431;DHT22;40342;52.998;5.862;2024-01-15T09:54:51;1.40;99.90
54431;DHT22;40342;52.998;5.862;2024-01-15T09:57:19;1.40;99.90
54431;DHT22;40342;52.998;5.862;2024-01-15T09:59:45;1.50;99.90
54431;DHT22;40342;52.998;5.862;2024-01-15T10:02:12;1.60;99.90
54431;DHT22;40342;52.998;5.862;2024-01-15T10:04:44;1.60;99.90
54431;DHT22;40342;52.998;5.862;2024-01-15T10:07:10;1.80;99.90
54431;DHT22;40342;52.998;5.862;2024-01-15T10:09:38;1.90;99.90
54431;DHT22;40342;52.998;5.862;2024-01-15T10:12:03;2.00;99.90
54431;DHT22;40342;52.998;5.862;2024-01-15T10:14:31;2.00;99.90
54431;DHT22;40342;52.998;5.862;2024-01-15T10:17:00;2.10;99.90
54431;DHT22;40342;52.998;5.862;2024-01-15T10:19:26;2.10;99.90
54431;DHT22;40342;52.998;5.862;2024-01-15T10:21:51;2.20;99.90
54431;DHT22;40342;52.998;5.862;2024-01-15T10:24:20;2.20;99.90
54431;DHT22;40342;52.998;5.862;2024-01-15T10:26:48;2.20;99.90
54431;DHT22;40342;52.998;5.862;2024-01-15T10:29:14;2.20;99.90
54431;DHT22;40342;52.998;5.862;2024-01-15T10:31:42;2.10;99.90
54431;DHT22;40342;52.998;5.862;2024-01-15T10:34:09;2.00;99.90
54431;DHT22;40342;52.998;5.862;2024-01-15T10:36:45;1.90;99.90
54431;DHT22;40342;52.998;5.862;2024-01-15T10:39:13;1.80;99.90
54431;DHT22;40342;52.998;5.862;2024-01-15T10:41:38;1.80;99.90
54431;DHT22;40342;52.998;5.862;2024-01-15T10:44:07;1.70;99.90
54431;DHT22;40342;52.998;5.862;2024-01-15T10:46:40;1.70;99.90
54431;DHT22;40342;52.998;5.862;2024-01-15T10:49:06;1.60;99.90
54431;DHT22;40342;52.998;5.862;2024-01-15T10:51:38;1.60;99.90
54431;DHT22;40342;52.998;5.862;2024-01-15T10:54:10;1.60;99.90
54431;DHT22;40342;52.998;5.862;2024-01-15T10:56:39;1.60;99.90
54431;DHT22;40342;52.998;5.862;2024-01-15T10:59:08;1.60;99.90
54431;DHT22;40342;52.998;5.862;2024-01-15T11:01:35;1.60;99.90
54431;DHT22;40342;52.998;5.862;2024-01-15T11:04:01;1.60;99.90
54431;DHT22;40342;52.998;5.862;2024-01-15T11:06:29;1.60;99.90
54431;DHT22;40342;52.998;5.862;2024-01-15T11:09:05;1.70;99.90
54431;DHT22;40342;52.998;5.862;2024-01-15T11:11:44;1.80;99.90
54431;DHT22;40342;52.998;5.862;2024-01-15T11:14:10;1.90;99.90
54431;DHT22;40342;52.998;5.862;2024-01-15T11:17:09;1.90;99.90
54431;DHT22;40342;52.998;5.862;2024-01-15T11:19:46;1.90;99.90
54431;DHT22;40342;52.998;5.862;2024-01-15T11:24:59;2.00;99.90
54431;DHT22;40342;52.998;5.862;2024-01-15T11:30:09;2.10;99.90
54431;DHT22;40342;52.998;5.862;2024-01-15T11:32:41;2.10;99.90
54431;DHT22;40342;52.998;5.862;2024-01-15T11:35:10;2.20;99.90
54431;DHT22;40342;52.998;5.862;2024-01-15T11:40:21;2.10;99.90
54431;DHT22;40342;52.998;5.862;2024-01-15T11:42:47;2.10;99.90
54431;DHT22;40342;52.998;5.862;2024-01-15T11:45:13;2.10;99.90
54431;DHT22;40342;52.998;5.862;2024-01-15T11:50:11;2.10;99.90
54431;DHT22;40342;52.998;5.862;2024-01-15T11:52:37;2.00;99.90
54431;DHT22;40342;52.998;5.862;2024-01-15T11:55:14;2.00;99.90
54431;DHT22;40342;52.998;5.862;2024-01-15T11:57:45;2.00;99.90
54431;DHT22;40342;52.998;5.862;2024-01-15T12:00:13;1.90;99.90
54431;DHT22;40342;52.998;5.862;2024-01-15T12:02:43;1.90;99.90
54431;DHT22;40342;52.998;5.862;2024-01-15T12:05:09;1.90;99.90
54431;DHT22;40342;52.998;5.862;2024-01-15T12:07:46;1.80;99.90
54431;DHT22;40342;52.998;5.862;2024-01-15T12:10:14;1.80;99.90
54431;DHT22;40342;52.998;5.862;2024-01-15T12:15:09;1.80;99.90
54431;DHT22;40342;52.998;5.862;2024-01-15T12:17:37;1.90;99.90
54431;DHT22;40342;52.998;5.862;2024-01-15T12:20:04;2.00;99.90
54431;DHT22;40342;52.998;5.862;2024-01-15T12:22:32;2.10;99.90
54431;DHT22;40342;52.998;5.862;2024-01-15T12:25:01;2.30;99.90
54431;DHT22;40342;52.998;5.862;2024-01-15T12:27:26;2.50;99.90
54431;DHT22;40342;52.998;5.862;2024-01-15T12:29:55;2.50;99.90
54431;DHT22;40342;52.998;5.862;2024-01-15T12:32:20;2.60;99.90
54431;DHT22;40342;52.998;5.862;2024-01-15T12:34:49;2.60;99.90
54431;DHT22;40342;52.998;5.862;2024-01-15T12:37:14;2.50;99.90
54431;DHT22;40342;52.998;5.862;2024-01-15T12:39:42;2.50;99.90
54431;DHT22;40342;52.998;5.862;2024-01-15T12:42:08;2.50;99.90
54431;DHT22;40342;52.998;5.862;2024-01-15T12:44:36;2.50;99.90
54431;DHT22;40342;52.998;5.862;2024-01-15T12:47:07;2.50;99.90
54431;DHT22;40342;52.998;5.862;2024-01-15T12:49:32;2.50;99.90
54431;DHT22;40342;52.998;5.862;2024-01-15T12:52:00;2.40;99.90
54431;DHT22;40342;52.998;5.862;2024-01-15T12:54:28;2.40;99.90
54431;DHT22;40342;52.998;5.862;2024-01-15T12:56:56;2.40;99.90
54431;DHT22;40342;52.998;5.862;2024-01-15T12:59:22;2.40;99.90
54431;DHT22;40342;52.998;5.862;2024-01-15T13:01:47;2.50;99.90
54431;DHT22;40342;52.998;5.862;2024-01-15T13:04:22;2.50;99.90
54431;DHT22;40342;52.998;5.862;2024-01-15T13:06:48;2.60;99.90
54431;DHT22;40342;52.998;5.862;2024-01-15T13:09:18;2.60;99.90
54431;DHT22;40342;52.998;5.862;2024-01-15T13:11:46;2.50;99.90
54431;DHT22;40342;52.998;5.862;2024-01-15T13:14:12;2.50;99.90
54431;DHT22;40342;52.998;5.862;2024-01-15T13:16:42;2.50;99.90
54431;DHT22;40342;52.998;5.862;2024-01-15T13:19:10;2.60;99.90
54431;DHT22;40342;52.998;5.862;2024-01-15T13:21:43;2.70;99.90
54431;DHT22;40342;52.998;5.862;2024-01-15T13:24:09;2.80;99.90
54431;DHT22;40342;52.998;5.862;2024-01-15T13:26:37;3.00;99.90
54431;DHT22;40342;52.998;5.862;2024-01-15T13:29:03;3.00;99.90
54431;DHT22;40342;52.998;5.862;2024-01-15T13:31:31;3.10;99.90
54431;DHT22;40342;52.998;5.862;2024-01-15T13:34:00;3.20;99.90
54431;DHT22;40342;52.998;5.862;2024-01-15T13:36:28;3.30;99.90
54431;DHT22;40342;52.998;5.862;2024-01-15T13:38:54;3.50;99.90
54431;DHT22;40342;52.998;5.862;2024-01-15T13:41:22;3.60;99.90
54431;DHT22;40342;52.998;5.862;2024-01-15T13:43:50;3.60;99.90
54431;DHT22;40342;52.998;5.862;2024-01-15T13:46:21;3.80;99.90
54431;DHT22;40342;52.998;5.862;2024-01-15T13:48:54;3.80;99.90
54431;DHT22;40342;52.998;5.862;2024-01-15T13:51:22;3.90;99.90
54431;DHT22;40342;52.998;5.862;2024-01-15T13:53:55;3.90;99.90
54431;DHT22;40342;52.998;5.862;2024-01-15T13:56:21;3.80;99.90
54431;DHT22;40342;52.998;5.862;2024-01-15T13:58:50;3.70;99.90
54431;DHT22;40342;52.998;5.862;2024-01-15T14:01:17;3.60;99.90
54431;DHT22;40342;52.998;5.862;2024-01-15T14:03:46;3.50;99.90
54431;DHT22;40342;52.998;5.862;2024-01-15T14:06:11;3.30;99.90
54431;DHT22;40342;52.998;5.862;2024-01-15T14:08:45;3.20;99.90
54431;DHT22;40342;52.998;5.862;2024-01-15T14:11:10;3.00;99.90
54431;DHT22;40342;52.998;5.862;2024-01-15T14:13:36;2.90;99.90
54431;DHT22;40342;52.998;5.862;2024-01-15T14:16:01;2.90;99.90
54431;DHT22;40342;52.998;5.862;2024-01-15T14:18:30;2.90;99.90
54431;DHT22;40342;52.998;5.862;2024-01-15T14:20:56;2.90;99.90
54431;DHT22;40342;52.998;5.862;2024-01-15T14:23:21;2.90;99.90
54431;DHT22;40342;52.998;5.862;2024-01-15T14:25:47;2.90;99.90
54431;DHT22;40342;52.998;5.862;2024-01-15T14:28:13;2.90;99.90
54431;DHT22;40342;52.998;5.862;2024-01-15T14:30:44;2.80;99.90
54431;DHT22;40342;52.998;5.862;2024-01-15T14:33:09;2.70;99.90
54431;DHT22;40342;52.998;5.862;2024-01-15T14:35:35;2.60;99.90
54431;DHT22;40342;52.998;5.862;2024-01-15T14:38:00;2.50;99.90
54431;DHT22;40342;52.998;5.862;2024-01-15T14:40:28;2.50;99.90
54431;DHT22;40342;52.998;5.862;2024-01-15T14:42:54;2.40;99.90
54431;DHT22;40342;52.998;5.862;2024-01-15T14:45:20;2.30;99.90
54431;DHT22;40342;52.998;5.862;2024-01-15T14:47:49;2.30;99.90
54431;DHT22;40342;52.998;5.862;2024-01-15T14:50:17;2.20;99.90
54431;DHT22;40342;52.998;5.862;2024-01-15T14:52:43;2.20;99.90
54431;DHT22;40342;52.998;5.862;2024-01-15T14:55:12;2.20;99.90
54431;DHT22;40342;52.998;5.862;2024-01-15T14:57:38;2.10;99.90
54431;DHT22;40342;52.998;5.862;2024-01-15T15:00:04;2.10;99.90
54431;DHT22;40342;52.998;5.862;2024-01-15T15:02:33;2.10;99.90
54431;DHT22;40342;52.998;5.862;2024-01-15T15:05:06;2.10;99.90
54431;DHT22;40342;52.998;5.862;2024-01-15T15:07:32;2.10;99.90
54431;DHT22;40342;52.998;5.862;2024-01-15T15:09:58;2.10;99.90
54431;DHT22;40342;52.998;5.862;2024-01-15T15:12:24;2.10;99.90
54431;DHT22;40342;52.998;5.862;2024-01-15T15:14:52;2.00;99.90
54431;DHT22;40342;52.998;5.862;2024-01-15T15:17:18;2.00;99.90
54431;DHT22;40342;52.998;5.862;2024-01-15T15:19:43;1.90;99.90
54431;DHT22;40342;52.998;5.862;2024-01-15T15:22:12;1.80;99.90
54431;DHT22;40342;52.998;5.862;2024-01-15T15:24:40;1.80;99.90
54431;DHT22;40342;52.998;5.862;2024-01-15T15:27:11;1.80;99.90
54431;DHT22;40342;52.998;5.862;2024-01-15T15:29:36;1.70;99.90
54431;DHT22;40342;52.998;5.862;2024-01-15T15:32:04;1.60;99.90
54431;DHT22;40342;52.998;5.862;2024-01-15T15:34:29;1.60;99.90
54431;DHT22;40342;52.998;5.862;2024-01-15T15:36:57;1.50;99.90
54431;DHT22;40342;52.998;5.862;2024-01-15T15:39:23;1.50;99.90
54431;DHT22;40342;52.998;5.862;2024-01-15T15:41:49;1.50;99.90
54431;DHT22;40342;52.998;5.862;2024-01-15T15:44:14;1.50;99.90
54431;DHT22;40342;52.998;5.862;2024-01-15T15:46:42;1.50;99.90
54431;DHT22;40342;52.998;5.862;2024-01-15T15:49:08;1.60;99.90
54431;DHT22;40342;52.998;5.862;2024-01-15T15:51:36;1.60;99.90
54431;DHT22;40342;52.998;5.862;2024-01-15T15:54:05;1.60;99.90
54431;DHT22;40342;52.998;5.862;2024-01-15T15:56:34;1.60;99.90
54431;DHT22;40342;52.998;5.862;2024-01-15T15:59:08;1.50;99.90
54431;DHT22;40342;52.998;5.862;2024-01-15T16:01:36;1.50;99.90